Grand Forks, ND

8:57 AM CST on December 22, 2014 (GMT -0600)
Grand Forks International | Change Station
CLOSE
Current Station
Airport
Location: Grand Forks,
Elevation: 843 ft
Nearby Weather Stations
Active Advisory: Special Statement Active Notice: Record Report

Elev 843 ft 47.95 °N, 97.18 °W | Updated 4 minutes ago

Overcast
Overcast
35 °F
Feels Like 28 °F
N
9
Wind Variable Wind from East

Today
High -- | Low -- °F
--% Chance of Precip.
Yesterday
High -- | Low -- °F
Precip. -- in
8:15 AM 4:38 PM
New Moon, 0% visible
Pressure 29.56 in
Visibility 3.0 miles
Clouds Overcast 400 ft
Windchill 28 °F
Dew Point 34 °F
Humidity 96%
Rainfall 0.01 in
Snow Depth Not available.
UV 0 out of 12
Pollen .10 out of 12
Air Quality Not available.
Flu Activity Not available.
METAR KGFK 221453Z 10008KT 3SM BR OVC004 02/01 A2953 RMK AO2 SFC VIS 4 DZE50 SLP009 P0001 60001 T00170011 51001

More Conditions Fewer Conditions

Pressure 29.56 in
Visibility 3.0 miles
Clouds Overcast 400 ft
Windchill 28 °F
Dew Point 34 °F
Humidity 96%
Rainfall 0.01 in
Snow Depth Not available.
UV 0 out of 12
Pollen .10 out of 12
Air Quality Not available.
Flu Activity Not available.
METAR KGFK 221453Z 10008KT 3SM BR OVC004 02/01 A2953 RMK AO2 SFC VIS 4 DZE50 SLP009 P0001 60001 T00170011 51001

More Conditions Fewer Conditions

10-Day Weather Forecast

Almanac

Astronomy

Dec. 22, 2014 Rise Set
Actual Time
Civil Twilight
Nautical Twilight
Astronomical Twilight
Moon
Length of Visible Light
Length of Day
Tomorrow will be .
, % of the Moon is Illuminated

Today's Extremes

State Highs State Lows

Community

WunderPhotos

Upload Photos

1,779,608 photos uploaded!

WunderBlogs® & News

Nearby

Air Quality

  Air Quality AQ Index Pollutant
Not available.

Snow Depth

Station Depth Elevation

Earthquake Activity

City Distance Mag. Time & Date
Minimum magnitude displayed is 2.5.

Coastal Water Temperatures

Place Temperature

Nearby Weather Stations